sensor_id;sensor_type;location;lat;lon;timestamp;P1;durP1;ratioP1;P2;durP2;ratioP2
12267;SDS011;6196;48.398;11.736;2023-02-28T00:01:24;4.40;;;3.57;;
12267;SDS011;6196;48.398;11.736;2023-02-28T00:03:52;5.00;;;3.50;;
12267;SDS011;6196;48.398;11.736;2023-02-28T00:06:19;4.33;;;3.40;;
12267;SDS011;6196;48.398;11.736;2023-02-28T00:08:47;6.00;;;3.63;;
12267;SDS011;6196;48.398;11.736;2023-02-28T00:11:14;4.93;;;3.90;;
12267;SDS011;6196;48.398;11.736;2023-02-28T00:13:43;5.93;;;3.63;;
12267;SDS011;6196;48.398;11.736;2023-02-28T00:16:19;5.30;;;3.47;;
12267;SDS011;6196;48.398;11.736;2023-02-28T00:18:48;5.70;;;3.60;;
12267;SDS011;6196;48.398;11.736;2023-02-28T00:21:16;4.40;;;3.27;;
12267;SDS011;6196;48.398;11.736;2023-02-28T00:23:44;5.73;;;3.70;;
12267;SDS011;6196;48.398;11.736;2023-02-28T00:26:11;5.13;;;3.30;;
12267;SDS011;6196;48.398;11.736;2023-02-28T00:28:38;4.57;;;3.70;;
12267;SDS011;6196;48.398;11.736;2023-02-28T00:31:05;6.13;;;3.87;;
12267;SDS011;6196;48.398;11.736;2023-02-28T00:33:32;4.63;;;3.30;;
12267;SDS011;6196;48.398;11.736;2023-02-28T00:36:06;4.47;;;3.40;;
12267;SDS011;6196;48.398;11.736;2023-02-28T00:38:36;5.00;;;3.90;;
12267;SDS011;6196;48.398;11.736;2023-02-28T00:41:04;4.47;;;3.33;;
12267;SDS011;6196;48.398;11.736;2023-02-28T00:43:32;4.77;;;3.60;;
12267;SDS011;6196;48.398;11.736;2023-02-28T00:46:01;4.10;;;3.57;;
12267;SDS011;6196;48.398;11.736;2023-02-28T00:48:28;5.10;;;3.47;;
12267;SDS011;6196;48.398;11.736;2023-02-28T00:50:55;4.17;;;3.47;;
12267;SDS011;6196;48.398;11.736;2023-02-28T00:53:22;5.17;;;3.57;;
12267;SDS011;6196;48.398;11.736;2023-02-28T00:55:49;5.23;;;4.10;;
12267;SDS011;6196;48.398;11.736;2023-02-28T00:58:16;4.83;;;3.43;;
12267;SDS011;6196;48.398;11.736;2023-02-28T01:00:44;5.87;;;3.73;;
12267;SDS011;6196;48.398;11.736;2023-02-28T01:03:18;4.40;;;3.43;;
12267;SDS011;6196;48.398;11.736;2023-02-28T01:05:46;6.77;;;3.90;;
12267;SDS011;6196;48.398;11.736;2023-02-28T01:08:14;4.47;;;3.57;;
12267;SDS011;6196;48.398;11.736;2023-02-28T01:10:41;4.03;;;3.30;;
12267;SDS011;6196;48.398;11.736;2023-02-28T01:13:08;5.37;;;4.00;;
12267;SDS011;6196;48.398;11.736;2023-02-28T01:15:35;5.87;;;4.70;;
12267;SDS011;6196;48.398;11.736;2023-02-28T01:18:12;5.80;;;3.90;;
12267;SDS011;6196;48.398;11.736;2023-02-28T01:20:39;5.30;;;3.70;;
12267;SDS011;6196;48.398;11.736;2023-02-28T01:23:05;5.03;;;3.93;;
12267;SDS011;6196;48.398;11.736;2023-02-28T01:25:34;4.33;;;3.70;;
12267;SDS011;6196;48.398;11.736;2023-02-28T01:28:02;4.13;;;3.60;;
12267;SDS011;6196;48.398;11.736;2023-02-28T01:30:29;4.70;;;3.90;;
12267;SDS011;6196;48.398;11.736;2023-02-28T01:32:56;4.67;;;3.90;;
12267;SDS011;6196;48.398;11.736;2023-02-28T01:35:24;4.80;;;4.20;;
12267;SDS011;6196;48.398;11.736;2023-02-28T01:37:51;6.03;;;4.03;;
12267;SDS011;6196;48.398;11.736;2023-02-28T01:40:17;4.90;;;3.97;;
12267;SDS011;6196;48.398;11.736;2023-02-28T01:42:44;4.70;;;3.90;;
12267;SDS011;6196;48.398;11.736;2023-02-28T01:45:19;5.53;;;4.33;;
12267;SDS011;6196;48.398;11.736;2023-02-28T01:47:52;5.67;;;4.00;;
12267;SDS011;6196;48.398;11.736;2023-02-28T01:50:24;5.30;;;4.20;;
12267;SDS011;6196;48.398;11.736;2023-02-28T01:52:56;4.70;;;4.03;;
12267;SDS011;6196;48.398;11.736;2023-02-28T01:55:27;4.67;;;3.90;;
12267;SDS011;6196;48.398;11.736;2023-02-28T01:57:56;5.80;;;4.20;;
12267;SDS011;6196;48.398;11.736;2023-02-28T02:00:26;4.00;;;3.60;;
12267;SDS011;6196;48.398;11.736;2023-02-28T02:02:57;5.13;;;4.57;;
12267;SDS011;6196;48.398;11.736;2023-02-28T02:05:30;6.43;;;4.13;;
12267;SDS011;6196;48.398;11.736;2023-02-28T02:08:09;5.17;;;4.40;;
12267;SDS011;6196;48.398;11.736;2023-02-28T02:13:24;5.17;;;3.83;;
12267;SDS011;6196;48.398;11.736;2023-02-28T02:23:07;5.17;;;4.20;;
12267;SDS011;6196;48.398;11.736;2023-02-28T02:25:34;6.03;;;4.20;;
12267;SDS011;6196;48.398;11.736;2023-02-28T02:34:29;6.20;;;4.53;;
12267;SDS011;6196;48.398;11.736;2023-02-28T02:37:13;6.70;;;4.60;;
12267;SDS011;6196;48.398;11.736;2023-02-28T02:39:59;7.80;;;4.80;;
12267;SDS011;6196;48.398;11.736;2023-02-28T02:42:49;5.67;;;4.23;;
12267;SDS011;6196;48.398;11.736;2023-02-28T02:45:32;6.77;;;4.40;;
12267;SDS011;6196;48.398;11.736;2023-02-28T02:48:06;7.20;;;4.57;;
12267;SDS011;6196;48.398;11.736;2023-02-28T02:50:41;6.73;;;4.80;;
12267;SDS011;6196;48.398;11.736;2023-02-28T02:53:13;6.63;;;5.10;;
12267;SDS011;6196;48.398;11.736;2023-02-28T02:55:44;9.97;;;5.20;;
12267;SDS011;6196;48.398;11.736;2023-02-28T02:58:19;6.03;;;4.77;;
12267;SDS011;6196;48.398;11.736;2023-02-28T03:00:53;7.07;;;4.97;;
12267;SDS011;6196;48.398;11.736;2023-02-28T03:03:25;5.63;;;4.30;;
12267;SDS011;6196;48.398;11.736;2023-02-28T03:05:57;6.83;;;4.63;;
12267;SDS011;6196;48.398;11.736;2023-02-28T03:08:31;7.53;;;5.57;;
12267;SDS011;6196;48.398;11.736;2023-02-28T03:11:12;6.37;;;4.83;;
12267;SDS011;6196;48.398;11.736;2023-02-28T03:14:00;7.80;;;5.37;;
12267;SDS011;6196;48.398;11.736;2023-02-28T03:19:57;7.27;;;5.03;;
12267;SDS011;6196;48.398;11.736;2023-02-28T03:22:43;8.20;;;5.33;;
12267;SDS011;6196;48.398;11.736;2023-02-28T03:25:37;6.53;;;5.40;;
12267;SDS011;6196;48.398;11.736;2023-02-28T03:28:15;6.00;;;4.83;;
12267;SDS011;6196;48.398;11.736;2023-02-28T03:31:07;7.20;;;5.17;;
12267;SDS011;6196;48.398;11.736;2023-02-28T03:33:58;7.40;;;5.47;;
12267;SDS011;6196;48.398;11.736;2023-02-28T03:36:44;7.10;;;5.10;;
12267;SDS011;6196;48.398;11.736;2023-02-28T03:39:16;6.17;;;5.57;;
12267;SDS011;6196;48.398;11.736;2023-02-28T03:41:57;8.17;;;5.37;;
12267;SDS011;6196;48.398;11.736;2023-02-28T03:44:35;9.20;;;5.73;;
12267;SDS011;6196;48.398;11.736;2023-02-28T03:47:13;6.60;;;5.70;;
12267;SDS011;6196;48.398;11.736;2023-02-28T03:49:59;6.47;;;5.37;;
12267;SDS011;6196;48.398;11.736;2023-02-28T03:52:39;6.43;;;5.50;;
12267;SDS011;6196;48.398;11.736;2023-02-28T03:55:15;7.27;;;5.97;;
12267;SDS011;6196;48.398;11.736;2023-02-28T04:00:30;8.07;;;6.13;;
12267;SDS011;6196;48.398;11.736;2023-02-28T04:03:04;7.77;;;5.93;;
12267;SDS011;6196;48.398;11.736;2023-02-28T04:05:31;7.50;;;6.10;;
12267;SDS011;6196;48.398;11.736;2023-02-28T04:08:06;9.67;;;6.23;;
12267;SDS011;6196;48.398;11.736;2023-02-28T04:10:34;7.73;;;6.00;;
12267;SDS011;6196;48.398;11.736;2023-02-28T04:13:01;8.10;;;6.17;;
12267;SDS011;6196;48.398;11.736;2023-02-28T04:15:27;8.37;;;6.50;;
12267;SDS011;6196;48.398;11.736;2023-02-28T04:17:54;7.23;;;5.67;;
12267;SDS011;6196;48.398;11.736;2023-02-28T04:20:21;6.90;;;6.13;;
12267;SDS011;6196;48.398;11.736;2023-02-28T04:22:48;9.37;;;6.00;;
12267;SDS011;6196;48.398;11.736;2023-02-28T04:25:15;9.47;;;6.40;;
12267;SDS011;6196;48.398;11.736;2023-02-28T04:27:42;9.70;;;6.07;;
12267;SDS011;6196;48.398;11.736;2023-02-28T04:30:10;8.50;;;6.77;;
12267;SDS011;6196;48.398;11.736;2023-02-28T04:32:38;8.67;;;7.07;;
12267;SDS011;6196;48.398;11.736;2023-02-28T04:35:05;9.70;;;7.17;;
12267;SDS011;6196;48.398;11.736;2023-02-28T04:37:32;8.27;;;7.23;;
12267;SDS011;6196;48.398;11.736;2023-02-28T04:40:01;8.47;;;6.63;;
12267;SDS011;6196;48.398;11.736;2023-02-28T04:42:28;8.77;;;7.23;;
12267;SDS011;6196;48.398;11.736;2023-02-28T04:45:02;7.90;;;7.10;;
12267;SDS011;6196;48.398;11.736;2023-02-28T04:47:29;9.40;;;6.93;;
12267;SDS011;6196;48.398;11.736;2023-02-28T04:49:56;12.60;;;6.70;;
12267;SDS011;6196;48.398;11.736;2023-02-28T04:52:24;7.33;;;5.90;;
12267;SDS011;6196;48.398;11.736;2023-02-28T04:54:51;8.37;;;6.57;;
12267;SDS011;6196;48.398;11.736;2023-02-28T04:57:18;8.40;;;6.73;;
12267;SDS011;6196;48.398;11.736;2023-02-28T04:59:44;9.83;;;7.00;;
12267;SDS011;6196;48.398;11.736;2023-02-28T05:02:19;9.30;;;6.90;;
12267;SDS011;6196;48.398;11.736;2023-02-28T05:04:47;10.03;;;7.33;;
12267;SDS011;6196;48.398;11.736;2023-02-28T05:07:14;8.87;;;7.07;;
12267;SDS011;6196;48.398;11.736;2023-02-28T05:09:41;8.73;;;7.27;;
12267;SDS011;6196;48.398;11.736;2023-02-28T05:12:08;8.70;;;6.87;;
12267;SDS011;6196;48.398;11.736;2023-02-28T05:14:35;11.37;;;8.47;;
12267;SDS011;6196;48.398;11.736;2023-02-28T05:17:02;9.27;;;6.60;;
12267;SDS011;6196;48.398;11.736;2023-02-28T05:19:29;9.73;;;7.60;;
12267;SDS011;6196;48.398;11.736;2023-02-28T05:21:56;11.07;;;7.90;;
12267;SDS011;6196;48.398;11.736;2023-02-28T05:24:23;10.20;;;7.73;;
12267;SDS011;6196;48.398;11.736;2023-02-28T05:26:51;10.50;;;8.13;;
12267;SDS011;6196;48.398;11.736;2023-02-28T05:29:19;9.93;;;7.83;;
12267;SDS011;6196;48.398;11.736;2023-02-28T05:31:46;8.93;;;7.37;;
12267;SDS011;6196;48.398;11.736;2023-02-28T05:34:13;8.20;;;7.27;;
12267;SDS011;6196;48.398;11.736;2023-02-28T05:36:42;8.80;;;7.10;;
12267;SDS011;6196;48.398;11.736;2023-02-28T05:39:09;11.60;;;7.30;;
12267;SDS011;6196;48.398;11.736;2023-02-28T05:41:42;10.23;;;7.90;;
12267;SDS011;6196;48.398;11.736;2023-02-28T05:44:09;11.20;;;7.97;;
12267;SDS011;6196;48.398;11.736;2023-02-28T05:46:36;10.57;;;8.20;;
12267;SDS011;6196;48.398;11.736;2023-02-28T05:49:04;9.70;;;7.40;;
12267;SDS011;6196;48.398;11.736;2023-02-28T05:51:31;8.27;;;7.07;;
12267;SDS011;6196;48.398;11.736;2023-02-28T05:54:01;10.03;;;7.53;;
12267;SDS011;6196;48.398;11.736;2023-02-28T05:56:28;9.40;;;8.07;;
12267;SDS011;6196;48.398;11.736;2023-02-28T05:58:55;9.43;;;7.63;;
12267;SDS011;6196;48.398;11.736;2023-02-28T06:01:31;10.10;;;7.50;;
12267;SDS011;6196;48.398;11.736;2023-02-28T06:04:02;11.63;;;7.97;;
12267;SDS011;6196;48.398;11.736;2023-02-28T06:06:31;9.37;;;7.70;;
12267;SDS011;6196;48.398;11.736;2023-02-28T06:09:03;10.43;;;8.40;;
12267;SDS011;6196;48.398;11.736;2023-02-28T06:11:31;10.63;;;8.43;;
12267;SDS011;6196;48.398;11.736;2023-02-28T06:13:59;10.60;;;8.00;;
12267;SDS011;6196;48.398;11.736;2023-02-28T06:16:27;9.77;;;8.00;;
12267;SDS011;6196;48.398;11.736;2023-02-28T06:19:00;11.37;;;8.23;;
12267;SDS011;6196;48.398;11.736;2023-02-28T06:21:29;11.17;;;8.37;;
12267;SDS011;6196;48.398;11.736;2023-02-28T06:23:57;10.97;;;9.03;;
12267;SDS011;6196;48.398;11.736;2023-02-28T06:26:25;12.03;;;8.57;;
12267;SDS011;6196;48.398;11.736;2023-02-28T06:28:52;12.20;;;9.07;;
12267;SDS011;6196;48.398;11.736;2023-02-28T06:31:20;14.40;;;9.20;;
12267;SDS011;6196;48.398;11.736;2023-02-28T06:33:48;12.03;;;8.10;;
12267;SDS011;6196;48.398;11.736;2023-02-28T06:36:15;11.73;;;8.43;;
12267;SDS011;6196;48.398;11.736;2023-02-28T06:38:43;9.50;;;7.83;;
12267;SDS011;6196;48.398;11.736;2023-02-28T06:41:11;8.87;;;7.50;;
12267;SDS011;6196;48.398;11.736;2023-02-28T06:43:39;10.97;;;8.50;;
12267;SDS011;6196;48.398;11.736;2023-02-28T06:46:08;11.13;;;8.03;;
12267;SDS011;6196;48.398;11.736;2023-02-28T06:48:40;10.20;;;8.13;;
12267;SDS011;6196;48.398;11.736;2023-02-28T06:51:10;10.63;;;8.20;;
12267;SDS011;6196;48.398;11.736;2023-02-28T06:53:43;13.23;;;8.30;;
12267;SDS011;6196;48.398;11.736;2023-02-28T06:56:12;10.17;;;8.50;;
12267;SDS011;6196;48.398;11.736;2023-02-28T06:58:45;9.63;;;7.13;;
12267;SDS011;6196;48.398;11.736;2023-02-28T07:01:16;9.40;;;8.07;;
12267;SDS011;6196;48.398;11.736;2023-02-28T07:03:43;8.97;;;7.50;;
12267;SDS011;6196;48.398;11.736;2023-02-28T07:06:11;11.93;;;8.13;;
12267;SDS011;6196;48.398;11.736;2023-02-28T07:08:38;10.77;;;8.37;;
12267;SDS011;6196;48.398;11.736;2023-02-28T07:11:07;11.40;;;7.73;;
12267;SDS011;6196;48.398;11.736;2023-02-28T07:13:33;10.23;;;8.00;;
12267;SDS011;6196;48.398;11.736;2023-02-28T07:16:04;10.73;;;7.83;;
12267;SDS011;6196;48.398;11.736;2023-02-28T07:18:34;11.83;;;7.63;;
12267;SDS011;6196;48.398;11.736;2023-02-28T07:21:02;11.00;;;8.00;;
12267;SDS011;6196;48.398;11.736;2023-02-28T07:23:31;11.50;;;8.27;;
12267;SDS011;6196;48.398;11.736;2023-02-28T07:25:58;10.13;;;8.13;;
12267;SDS011;6196;48.398;11.736;2023-02-28T07:28:25;9.90;;;7.13;;
12267;SDS011;6196;48.398;11.736;2023-02-28T07:30:53;12.17;;;7.03;;
12267;SDS011;6196;48.398;11.736;2023-02-28T07:33:20;9.23;;;7.87;;
12267;SDS011;6196;48.398;11.736;2023-02-28T07:35:47;10.00;;;8.17;;
12267;SDS011;6196;48.398;11.736;2023-02-28T07:38:14;9.97;;;7.80;;
12267;SDS011;6196;48.398;11.736;2023-02-28T07:40:41;8.33;;;7.30;;
12267;SDS011;6196;48.398;11.736;2023-02-28T07:43:08;8.00;;;7.20;;
12267;SDS011;6196;48.398;11.736;2023-02-28T07:45:39;8.73;;;7.30;;
12267;SDS011;6196;48.398;11.736;2023-02-28T07:48:06;10.20;;;7.70;;
12267;SDS011;6196;48.398;11.736;2023-02-28T07:50:36;11.57;;;7.37;;
12267;SDS011;6196;48.398;11.736;2023-02-28T07:53:03;11.77;;;7.00;;
12267;SDS011;6196;48.398;11.736;2023-02-28T07:55:30;9.07;;;7.27;;
12267;SDS011;6196;48.398;11.736;2023-02-28T07:57:57;10.60;;;6.63;;
12267;SDS011;6196;48.398;11.736;2023-02-28T08:00:24;9.13;;;7.47;;
12267;SDS011;6196;48.398;11.736;2023-02-28T08:02:51;9.53;;;7.50;;
12267;SDS011;6196;48.398;11.736;2023-02-28T08:05:18;13.67;;;7.73;;
12267;SDS011;6196;48.398;11.736;2023-02-28T08:07:48;12.47;;;8.17;;
12267;SDS011;6196;48.398;11.736;2023-02-28T08:10:16;8.87;;;6.90;;
12267;SDS011;6196;48.398;11.736;2023-02-28T08:12:43;11.37;;;8.27;;
12267;SDS011;6196;48.398;11.736;2023-02-28T08:15:10;10.87;;;7.37;;
12267;SDS011;6196;48.398;11.736;2023-02-28T08:17:37;9.83;;;7.10;;
12267;SDS011;6196;48.398;11.736;2023-02-28T08:20:04;10.13;;;7.40;;
12267;SDS011;6196;48.398;11.736;2023-02-28T08:22:31;10.00;;;7.93;;
12267;SDS011;6196;48.398;11.736;2023-02-28T08:24:58;8.93;;;7.27;;
12267;SDS011;6196;48.398;11.736;2023-02-28T08:27:25;9.30;;;7.27;;
12267;SDS011;6196;48.398;11.736;2023-02-28T08:29:52;10.87;;;7.30;;
12267;SDS011;6196;48.398;11.736;2023-02-28T08:32:19;9.80;;;7.50;;
12267;SDS011;6196;48.398;11.736;2023-02-28T08:34:55;9.13;;;7.80;;
12267;SDS011;6196;48.398;11.736;2023-02-28T08:37:22;9.13;;;7.77;;
12267;SDS011;6196;48.398;11.736;2023-02-28T08:39:49;11.47;;;8.17;;
12267;SDS011;6196;48.398;11.736;2023-02-28T08:42:16;9.50;;;7.60;;
12267;SDS011;6196;48.398;11.736;2023-02-28T08:44:43;9.33;;;8.10;;
12267;SDS011;6196;48.398;11.736;2023-02-28T08:47:09;10.20;;;7.83;;
12267;SDS011;6196;48.398;11.736;2023-02-28T08:49:36;10.37;;;7.67;;
12267;SDS011;6196;48.398;11.736;2023-02-28T08:52:03;9.07;;;6.97;;
12267;SDS011;6196;48.398;11.736;2023-02-28T08:54:30;10.87;;;8.30;;
12267;SDS011;6196;48.398;11.736;2023-02-28T08:56:59;10.30;;;7.40;;
12267;SDS011;6196;48.398;11.736;2023-02-28T08:59:26;9.30;;;7.40;;
12267;SDS011;6196;48.398;11.736;2023-02-28T09:01:53;8.97;;;7.43;;
12267;SDS011;6196;48.398;11.736;2023-02-28T09:04:20;8.87;;;7.53;;
12267;SDS011;6196;48.398;11.736;2023-02-28T09:06:50;11.10;;;8.20;;
12267;SDS011;6196;48.398;11.736;2023-02-28T09:09:16;8.87;;;7.07;;
12267;SDS011;6196;48.398;11.736;2023-02-28T09:11:43;9.37;;;7.47;;
12267;SDS011;6196;48.398;11.736;2023-02-28T09:14:10;10.40;;;7.60;;
12267;SDS011;6196;48.398;11.736;2023-02-28T09:16:37;10.63;;;7.10;;
12267;SDS011;6196;48.398;11.736;2023-02-28T09:19:04;9.23;;;7.70;;
12267;SDS011;6196;48.398;11.736;2023-02-28T09:21:31;18.30;;;13.73;;
12267;SDS011;6196;48.398;11.736;2023-02-28T09:23:58;12.87;;;9.70;;
12267;SDS011;6196;48.398;11.736;2023-02-28T09:26:25;13.23;;;8.20;;
12267;SDS011;6196;48.398;11.736;2023-02-28T09:29:07;13.30;;;10.27;;
12267;SDS011;6196;48.398;11.736;2023-02-28T09:31:34;13.37;;;10.20;;
12267;SDS011;6196;48.398;11.736;2023-02-28T09:34:01;10.97;;;8.90;;
12267;SDS011;6196;48.398;11.736;2023-02-28T09:36:30;11.00;;;8.30;;
12267;SDS011;6196;48.398;11.736;2023-02-28T09:39:09;10.00;;;7.77;;
12267;SDS011;6196;48.398;11.736;2023-02-28T09:41:37;9.93;;;7.43;;
12267;SDS011;6196;48.398;11.736;2023-02-28T09:44:15;10.17;;;8.03;;
12267;SDS011;6196;48.398;11.736;2023-02-28T09:46:56;8.97;;;7.90;;
12267;SDS011;6196;48.398;11.736;2023-02-28T09:49:39;10.63;;;8.23;;
12267;SDS011;6196;48.398;11.736;2023-02-28T09:52:10;10.50;;;8.70;;
12267;SDS011;6196;48.398;11.736;2023-02-28T09:54:44;11.37;;;9.50;;
12267;SDS011;6196;48.398;11.736;2023-02-28T09:57:18;139.17;;;60.63;;
12267;SDS011;6196;48.398;11.736;2023-02-28T10:00:19;59.03;;;31.87;;
12267;SDS011;6196;48.398;11.736;2023-02-28T10:06:28;15.10;;;10.50;;
12267;SDS011;6196;48.398;11.736;2023-02-28T10:09:07;12.40;;;8.37;;
12267;SDS011;6196;48.398;11.736;2023-02-28T10:11:42;15.57;;;11.57;;
12267;SDS011;6196;48.398;11.736;2023-02-28T10:14:13;41.10;;;23.67;;
12267;SDS011;6196;48.398;11.736;2023-02-28T10:16:46;40.70;;;21.33;;
12267;SDS011;6196;48.398;11.736;2023-02-28T10:22:21;15.63;;;11.60;;
12267;SDS011;6196;48.398;11.736;2023-02-28T10:25:19;10.70;;;8.40;;
12267;SDS011;6196;48.398;11.736;2023-02-28T10:27:52;11.53;;;8.37;;
12267;SDS011;6196;48.398;11.736;2023-02-28T10:30:27;8.60;;;7.40;;
12267;SDS011;6196;48.398;11.736;2023-02-28T10:32:54;12.67;;;8.70;;
12267;SDS011;6196;48.398;11.736;2023-02-28T10:35:22;8.73;;;7.57;;
12267;SDS011;6196;48.398;11.736;2023-02-28T10:37:55;10.33;;;8.87;;
12267;SDS011;6196;48.398;11.736;2023-02-28T10:43:04;12.17;;;10.20;;
12267;SDS011;6196;48.398;11.736;2023-02-28T10:45:54;11.47;;;9.37;;
12267;SDS011;6196;48.398;11.736;2023-02-28T10:51:03;10.20;;;7.87;;
12267;SDS011;6196;48.398;11.736;2023-02-28T10:53:34;8.97;;;7.70;;
12267;SDS011;6196;48.398;11.736;2023-02-28T10:56:26;8.97;;;7.57;;
12267;SDS011;6196;48.398;11.736;2023-02-28T11:01:53;8.73;;;7.57;;
12267;SDS011;6196;48.398;11.736;2023-02-28T11:04:32;10.13;;;7.80;;
12267;SDS011;6196;48.398;11.736;2023-02-28T11:07:16;9.80;;;8.47;;
12267;SDS011;6196;48.398;11.736;2023-02-28T11:09:52;8.60;;;7.23;;
12267;SDS011;6196;48.398;11.736;2023-02-28T11:12:29;9.43;;;8.37;;
12267;SDS011;6196;48.398;11.736;2023-02-28T11:15:21;9.67;;;7.97;;
12267;SDS011;6196;48.398;11.736;2023-02-28T11:20:35;10.60;;;8.60;;
12267;SDS011;6196;48.398;11.736;2023-02-28T11:23:02;9.43;;;7.90;;
12267;SDS011;6196;48.398;11.736;2023-02-28T11:25:34;9.80;;;8.80;;
12267;SDS011;6196;48.398;11.736;2023-02-28T11:28:05;10.13;;;8.00;;
12267;SDS011;6196;48.398;11.736;2023-02-28T11:31:34;10.03;;;8.87;;
12267;SDS011;6196;48.398;11.736;2023-02-28T11:36:23;10.20;;;8.20;;
12267;SDS011;6196;48.398;11.736;2023-02-28T11:38:53;8.33;;;7.40;;
12267;SDS011;6196;48.398;11.736;2023-02-28T11:50:47;8.70;;;7.67;;
12267;SDS011;6196;48.398;11.736;2023-02-28T11:56:51;9.13;;;7.77;;
12267;SDS011;6196;48.398;11.736;2023-02-28T12:02:22;9.73;;;8.20;;
12267;SDS011;6196;48.398;11.736;2023-02-28T12:22:34;9.40;;;7.83;;
12267;SDS011;6196;48.398;11.736;2023-02-28T12:28:31;8.77;;;7.83;;
12267;SDS011;6196;48.398;11.736;2023-02-28T12:31:06;8.83;;;8.03;;
12267;SDS011;6196;48.398;11.736;2023-02-28T12:33:50;9.87;;;8.00;;
12267;SDS011;6196;48.398;11.736;2023-02-28T12:36:32;10.07;;;8.53;;
12267;SDS011;6196;48.398;11.736;2023-02-28T12:39:08;9.13;;;8.23;;
12267;SDS011;6196;48.398;11.736;2023-02-28T12:41:45;8.73;;;7.93;;
12267;SDS011;6196;48.398;11.736;2023-02-28T12:44:43;8.83;;;7.93;;
12267;SDS011;6196;48.398;11.736;2023-02-28T12:47:15;9.23;;;7.90;;
12267;SDS011;6196;48.398;11.736;2023-02-28T12:49:58;8.77;;;7.80;;
12267;SDS011;6196;48.398;11.736;2023-02-28T12:52:48;8.83;;;8.03;;
12267;SDS011;6196;48.398;11.736;2023-02-28T12:55:39;8.27;;;7.47;;
12267;SDS011;6196;48.398;11.736;2023-02-28T13:04:26;9.03;;;7.63;;
12267;SDS011;6196;48.398;11.736;2023-02-28T13:07:28;8.87;;;7.73;;
12267;SDS011;6196;48.398;11.736;2023-02-28T13:10:19;9.77;;;8.40;;
12267;SDS011;6196;48.398;11.736;2023-02-28T13:12:50;9.93;;;8.93;;
12267;SDS011;6196;48.398;11.736;2023-02-28T13:15:20;8.47;;;7.47;;
12267;SDS011;6196;48.398;11.736;2023-02-28T13:17:58;8.97;;;8.17;;
12267;SDS011;6196;48.398;11.736;2023-02-28T13:20:26;9.10;;;8.23;;
12267;SDS011;6196;48.398;11.736;2023-02-28T13:23:00;8.63;;;7.80;;
12267;SDS011;6196;48.398;11.736;2023-02-28T13:28:08;8.30;;;7.50;;
12267;SDS011;6196;48.398;11.736;2023-02-28T13:33:30;8.57;;;7.77;;
12267;SDS011;6196;48.398;11.736;2023-02-28T13:36:07;9.57;;;8.70;;
12267;SDS011;6196;48.398;11.736;2023-02-28T13:38:44;10.73;;;8.87;;
12267;SDS011;6196;48.398;11.736;2023-02-28T13:46:37;9.00;;;8.20;;
12267;SDS011;6196;48.398;11.736;2023-02-28T14:06:32;9.27;;;8.27;;
12267;SDS011;6196;48.398;11.736;2023-02-28T14:11:38;8.93;;;8.03;;
12267;SDS011;6196;48.398;11.736;2023-02-28T14:14:08;9.77;;;8.83;;
12267;SDS011;6196;48.398;11.736;2023-02-28T14:17:01;8.83;;;7.93;;
12267;SDS011;6196;48.398;11.736;2023-02-28T14:19:40;9.13;;;8.23;;
12267;SDS011;6196;48.398;11.736;2023-02-28T14:27:48;9.63;;;8.27;;
12267;SDS011;6196;48.398;11.736;2023-02-28T14:30:51;8.97;;;8.13;;
12267;SDS011;6196;48.398;11.736;2023-02-28T14:33:25;9.83;;;8.83;;
12267;SDS011;6196;48.398;11.736;2023-02-28T14:39:15;10.17;;;9.17;;
12267;SDS011;6196;48.398;11.736;2023-02-28T14:41:46;9.33;;;8.43;;
12267;SDS011;6196;48.398;11.736;2023-02-28T14:44:21;9.47;;;8.50;;
12267;SDS011;6196;48.398;11.736;2023-02-28T14:46:57;9.50;;;8.60;;
12267;SDS011;6196;48.398;11.736;2023-02-28T14:49:41;9.03;;;8.17;;
12267;SDS011;6196;48.398;11.736;2023-02-28T14:52:15;15.17;;;13.67;;
12267;SDS011;6196;48.398;11.736;2023-02-28T14:54:57;14.37;;;12.70;;
12267;SDS011;6196;48.398;11.736;2023-02-28T14:57:33;10.77;;;9.63;;
12267;SDS011;6196;48.398;11.736;2023-02-28T15:00:16;9.70;;;8.70;;
12267;SDS011;6196;48.398;11.736;2023-02-28T15:02:51;9.40;;;8.50;;
12267;SDS011;6196;48.398;11.736;2023-02-28T15:05:27;10.67;;;9.40;;
12267;SDS011;6196;48.398;11.736;2023-02-28T15:08:04;10.87;;;9.17;;
12267;SDS011;6196;48.398;11.736;2023-02-28T15:10:42;10.70;;;9.63;;
12267;SDS011;6196;48.398;11.736;2023-02-28T15:13:12;9.60;;;8.60;;
12267;SDS011;6196;48.398;11.736;2023-02-28T15:15:42;9.40;;;8.03;;
12267;SDS011;6196;48.398;11.736;2023-02-28T15:21:19;9.43;;;8.53;;
12267;SDS011;6196;48.398;11.736;2023-02-28T15:24:04;9.90;;;9.00;;
12267;SDS011;6196;48.398;11.736;2023-02-28T15:26:40;9.67;;;8.67;;
12267;SDS011;6196;48.398;11.736;2023-02-28T15:29:13;9.60;;;8.60;;
12267;SDS011;6196;48.398;11.736;2023-02-28T15:31:45;8.80;;;7.90;;
12267;SDS011;6196;48.398;11.736;2023-02-28T15:34:27;10.20;;;9.10;;
12267;SDS011;6196;48.398;11.736;2023-02-28T15:40:09;11.47;;;10.00;;
12267;SDS011;6196;48.398;11.736;2023-02-28T15:45:51;12.73;;;10.63;;
12267;SDS011;6196;48.398;11.736;2023-02-28T15:48:23;14.67;;;12.00;;
12267;SDS011;6196;48.398;11.736;2023-02-28T15:51:02;11.43;;;9.20;;
12267;SDS011;6196;48.398;11.736;2023-02-28T15:53:56;10.17;;;8.67;;
12267;SDS011;6196;48.398;11.736;2023-02-28T15:56:44;10.60;;;9.30;;
12267;SDS011;6196;48.398;11.736;2023-02-28T15:59:15;10.43;;;8.80;;
12267;SDS011;6196;48.398;11.736;2023-02-28T16:02:01;9.53;;;8.63;;
12267;SDS011;6196;48.398;11.736;2023-02-28T16:07:36;9.87;;;8.87;;
12267;SDS011;6196;48.398;11.736;2023-02-28T16:10:09;12.13;;;10.00;;
12267;SDS011;6196;48.398;11.736;2023-02-28T16:12:40;10.80;;;9.70;;
12267;SDS011;6196;48.398;11.736;2023-02-28T16:15:08;11.37;;;9.07;;
12267;SDS011;6196;48.398;11.736;2023-02-28T16:17:55;11.33;;;10.10;;
12267;SDS011;6196;48.398;11.736;2023-02-28T16:22:53;12.03;;;10.57;;
12267;SDS011;6196;48.398;11.736;2023-02-28T16:25:25;12.73;;;10.60;;
12267;SDS011;6196;48.398;11.736;2023-02-28T16:28:00;14.73;;;10.53;;
12267;SDS011;6196;48.398;11.736;2023-02-28T16:30:28;12.37;;;9.70;;
12267;SDS011;6196;48.398;11.736;2023-02-28T16:32:59;12.33;;;10.27;;
12267;SDS011;6196;48.398;11.736;2023-02-28T16:35:26;10.70;;;9.60;;
12267;SDS011;6196;48.398;11.736;2023-02-28T16:37:53;11.77;;;9.87;;
12267;SDS011;6196;48.398;11.736;2023-02-28T16:40:21;12.27;;;9.53;;
12267;SDS011;6196;48.398;11.736;2023-02-28T16:42:52;11.80;;;10.30;;
12267;SDS011;6196;48.398;11.736;2023-02-28T16:45:25;15.13;;;10.70;;
12267;SDS011;6196;48.398;11.736;2023-02-28T16:47:54;13.73;;;9.90;;
12267;SDS011;6196;48.398;11.736;2023-02-28T16:50:23;13.87;;;10.10;;
12267;SDS011;6196;48.398;11.736;2023-02-28T16:52:53;13.57;;;9.90;;
12267;SDS011;6196;48.398;11.736;2023-02-28T16:55:22;11.90;;;10.20;;
12267;SDS011;6196;48.398;11.736;2023-02-28T16:57:54;15.07;;;10.63;;
12267;SDS011;6196;48.398;11.736;2023-02-28T17:00:24;14.17;;;11.80;;
12267;SDS011;6196;48.398;11.736;2023-02-28T17:02:54;15.67;;;12.03;;
12267;SDS011;6196;48.398;11.736;2023-02-28T17:05:22;13.30;;;11.00;;
12267;SDS011;6196;48.398;11.736;2023-02-28T17:07:50;15.90;;;12.57;;
12267;SDS011;6196;48.398;11.736;2023-02-28T17:12:43;13.37;;;11.70;;
12267;SDS011;6196;48.398;11.736;2023-02-28T17:15:11;15.20;;;12.27;;
12267;SDS011;6196;48.398;11.736;2023-02-28T17:17:41;16.00;;;11.97;;
12267;SDS011;6196;48.398;11.736;2023-02-28T17:20:27;16.80;;;13.00;;
12267;SDS011;6196;48.398;11.736;2023-02-28T17:22:54;15.20;;;12.07;;
12267;SDS011;6196;48.398;11.736;2023-02-28T17:25:22;17.50;;;13.27;;
12267;SDS011;6196;48.398;11.736;2023-02-28T17:27:50;28.23;;;17.47;;
12267;SDS011;6196;48.398;11.736;2023-02-28T17:30:23;22.50;;;16.00;;
12267;SDS011;6196;48.398;11.736;2023-02-28T17:32:55;18.47;;;12.53;;